createdAt,value
2017-04-25T00:00:15.290Z,20.43
2017-04-25T00:00:35.304Z,20.56
2017-04-25T00:00:54.739Z,20.42
2017-04-25T00:01:14.708Z,20.51
2017-04-25T00:01:34.713Z,20.56
2017-04-25T00:01:54.716Z,20.5
2017-04-25T00:02:14.130Z,20.61
2017-04-25T00:02:34.092Z,20.57
2017-04-25T00:02:54.110Z,20.65
2017-04-25T00:03:14.138Z,20.51
2017-04-25T00:03:35.879Z,20.47
2017-04-25T00:03:55.939Z,20.64
2017-04-25T00:04:16.478Z,20.5
2017-04-25T00:04:36.465Z,20.54
2017-04-25T00:04:56.664Z,20.53
2017-04-25T00:05:16.076Z,20.56
2017-04-25T00:05:36.073Z,20.43
2017-04-25T00:05:56.079Z,20.47
2017-04-25T00:06:16.030Z,20.56
2017-04-25T00:06:36.023Z,20.62
2017-04-25T00:06:56.029Z,20.62
2017-04-25T00:07:15.991Z,20.51
2017-04-25T00:07:35.960Z,20.64
2017-04-25T00:07:55.964Z,20.46
2017-04-25T00:08:15.976Z,20.64
2017-04-25T00:08:35.998Z,20.68
2017-04-25T00:08:56.005Z,20.62
2017-04-25T00:09:15.408Z,20.57
2017-04-25T00:09:35.376Z,20.53
2017-04-25T00:09:55.377Z,20.56
2017-04-25T00:10:15.376Z,20.62
2017-04-25T00:10:35.338Z,20.57
2017-04-25T00:10:55.348Z,20.53
2017-04-25T00:11:15.317Z,20.47
2017-04-25T00:11:34.738Z,20.46
2017-04-25T00:11:54.684Z,20.5
2017-04-25T00:12:14.660Z,20.42
2017-04-25T00:12:34.640Z,20.47
2017-04-25T00:12:54.641Z,20.47
2017-04-25T00:13:13.510Z,20.5
2017-04-25T00:13:32.953Z,20.54
2017-04-25T00:13:52.958Z,20.46
2017-04-25T00:14:12.965Z,20.5
2017-04-25T00:14:32.931Z,20.5
2017-04-25T00:14:52.910Z,20.65
2017-04-25T00:15:12.908Z,20.64
2017-04-25T00:15:37.830Z,20.61
2017-04-25T00:15:57.849Z,20.65
2017-04-25T00:16:17.834Z,20.64
2017-04-25T00:16:37.774Z,20.66
2017-04-25T00:16:57.726Z,20.64
2017-04-25T00:17:17.154Z,20.66
2017-04-25T00:17:36.569Z,20.62
2017-04-25T00:17:56.564Z,20.51
2017-04-25T00:18:16.551Z,20.54
2017-04-25T00:18:36.582Z,20.53
2017-04-25T00:18:56.585Z,20.61
2017-04-25T00:19:16.586Z,20.69
2017-04-25T00:19:36.601Z,20.68
2017-04-25T00:19:56.694Z,20.68
2017-04-25T00:20:15.526Z,20.66
2017-04-25T00:20:35.509Z,20.62
2017-04-25T00:20:55.508Z,20.72
2017-04-25T00:21:15.489Z,20.76
2017-04-25T00:21:35.486Z,20.74
2017-04-25T00:21:55.491Z,20.57
2017-04-25T00:22:14.920Z,20.76
2017-04-25T00:22:34.929Z,20.64
2017-04-25T00:22:54.885Z,20.65
2017-04-25T00:23:14.899Z,20.62
2017-04-25T00:23:34.918Z,20.69
2017-04-25T00:23:54.911Z,20.64
2017-04-25T00:24:14.911Z,20.76
2017-04-25T00:24:34.934Z,20.65
2017-04-25T00:24:54.919Z,20.65
2017-04-25T00:25:14.967Z,20.65
2017-04-25T00:25:34.956Z,20.54
2017-04-25T00:25:54.915Z,20.59
2017-04-25T00:26:14.358Z,20.42
2017-04-25T00:26:33.767Z,20.53
2017-04-25T00:26:53.743Z,20.65
2017-04-25T00:27:13.738Z,20.62
2017-04-25T00:27:33.724Z,20.64
2017-04-25T00:27:53.732Z,20.72
2017-04-25T00:28:13.123Z,20.72
2017-04-25T00:28:33.078Z,20.68
2017-04-25T00:28:52.486Z,20.72
2017-04-25T00:29:12.475Z,20.8
2017-04-25T00:29:31.907Z,20.8
2017-04-25T00:29:51.895Z,20.86
2017-04-25T00:30:11.917Z,20.84
2017-04-25T00:30:31.323Z,20.82
2017-04-25T00:30:51.262Z,20.83
2017-04-25T00:31:10.692Z,20.75
2017-04-25T00:31:30.129Z,20.82
2017-04-25T00:31:50.076Z,20.84
2017-04-25T00:32:10.080Z,20.76
2017-04-25T00:32:30.078Z,20.65
2017-04-25T00:32:50.050Z,20.82
2017-04-25T00:33:10.046Z,20.8
2017-04-25T00:33:29.446Z,20.84
2017-04-25T00:33:49.419Z,20.69
2017-04-25T00:34:09.411Z,20.84
2017-04-25T00:34:28.821Z,20.76
2017-04-25T00:34:48.265Z,20.75
2017-04-25T00:35:08.242Z,20.84
2017-04-25T00:35:28.265Z,20.89
2017-04-25T00:35:48.236Z,20.86
2017-04-25T00:36:08.242Z,20.89
2017-04-25T00:36:28.213Z,20.82
2017-04-25T00:36:48.210Z,20.89
2017-04-25T00:37:08.192Z,20.91
2017-04-25T00:37:28.156Z,20.9
2017-04-25T00:37:47.007Z,21.02
2017-04-25T00:38:06.409Z,20.96
2017-04-25T00:38:25.821Z,20.93
2017-04-25T00:38:45.799Z,20.99
2017-04-25T00:39:05.207Z,20.94
2017-04-25T00:39:25.187Z,20.91
2017-04-25T00:39:45.189Z,21.02
2017-04-25T00:40:05.030Z,20.99
2017-04-25T00:40:24.895Z,21.01
2017-04-25T00:40:43.761Z,20.98
2017-04-25T00:41:03.711Z,21.08
2017-04-25T00:41:23.701Z,20.96
2017-04-25T00:41:43.685Z,21.02
2017-04-25T00:42:03.671Z,20.98
2017-04-25T00:42:23.664Z,20.98
2017-04-25T00:42:43.690Z,20.96
2017-04-25T00:43:03.684Z,21.01
2017-04-25T00:43:23.666Z,20.96
2017-04-25T00:43:43.801Z,20.86
2017-04-25T00:44:03.779Z,20.89
2017-04-25T00:44:23.767Z,20.86
2017-04-25T00:44:43.789Z,20.91
2017-04-25T00:45:03.778Z,20.87
2017-04-25T00:45:23.766Z,20.89
2017-04-25T00:45:43.739Z,20.91
2017-04-25T00:46:03.728Z,20.98
2017-04-25T00:46:23.130Z,20.94
2017-04-25T00:46:43.076Z,20.96
2017-04-25T00:47:02.506Z,20.93
2017-04-25T00:47:22.474Z,21.02
2017-04-25T00:47:42.473Z,20.9
2017-04-25T00:48:02.469Z,20.87
2017-04-25T00:48:22.430Z,20.91
2017-04-25T00:48:42.401Z,20.89
2017-04-25T00:49:01.860Z,20.82
2017-04-25T00:49:21.273Z,20.8
2017-04-25T00:49:41.234Z,20.8
2017-04-25T00:50:00.771Z,20.8
2017-04-25T00:50:20.724Z,20.79
2017-04-25T00:50:40.732Z,20.75
2017-04-25T00:51:00.689Z,20.8
2017-04-25T00:51:20.688Z,20.82
2017-04-25T00:51:40.112Z,20.75
2017-04-25T00:52:00.249Z,20.68
2017-04-25T00:52:19.673Z,20.79
2017-04-25T00:52:39.650Z,20.82
2017-04-25T00:52:59.628Z,20.83
2017-04-25T00:53:19.056Z,20.86
2017-04-25T00:53:39.024Z,20.83
2017-04-25T00:53:58.478Z,20.74
2017-04-25T00:54:17.892Z,20.8
2017-04-25T00:54:37.879Z,20.74
2017-04-25T00:54:57.416Z,20.69
2017-04-25T00:55:17.409Z,20.65
2017-04-25T00:55:37.358Z,20.71
2017-04-25T00:55:57.340Z,20.72
2017-04-25T00:56:17.317Z,20.72
2017-04-25T00:56:37.333Z,20.8
2017-04-25T00:56:57.301Z,20.79
2017-04-25T00:57:16.680Z,20.79
2017-04-25T00:57:36.669Z,20.8
2017-04-25T00:57:56.706Z,20.84
2017-04-25T00:58:16.683Z,20.96
2017-04-25T00:58:36.138Z,20.82
2017-04-25T00:58:55.592Z,20.9
2017-04-25T00:59:15.599Z,21.01
2017-04-25T00:59:35.596Z,20.91
2017-04-25T00:59:55.599Z,20.99
2017-04-25T01:00:14.992Z,20.82
2017-04-25T01:00:34.977Z,20.94
2017-04-25T01:00:54.409Z,20.9
2017-04-25T01:01:14.378Z,20.89
2017-04-25T01:01:34.378Z,20.89
2017-04-25T01:01:54.373Z,20.84
2017-04-25T01:02:14.368Z,20.83
2017-04-25T01:02:34.318Z,20.8
2017-04-25T01:02:54.333Z,20.82
2017-04-25T01:03:13.778Z,20.83
2017-04-25T01:03:33.747Z,20.94
2017-04-25T01:03:53.727Z,20.84
2017-04-25T01:04:13.154Z,20.89
2017-04-25T01:04:33.131Z,20.91
2017-04-25T01:04:53.150Z,20.87
2017-04-25T01:05:12.024Z,20.82
2017-04-25T01:05:32.000Z,20.87
2017-04-25T01:05:51.962Z,20.94
2017-04-25T01:06:11.915Z,20.83
2017-04-25T01:06:31.915Z,20.87
2017-04-25T01:06:51.898Z,20.93
2017-04-25T01:07:11.838Z,20.86
2017-04-25T01:07:31.802Z,20.87
2017-04-25T01:07:51.804Z,20.93
2017-04-25T01:08:11.237Z,20.94
2017-04-25T01:08:31.213Z,20.87
2017-04-25T01:08:51.209Z,20.9
2017-04-25T01:09:10.604Z,20.82
2017-04-25T01:09:30.049Z,20.87
2017-04-25T01:09:50.289Z,20.83
2017-04-25T01:10:09.717Z,20.94
2017-04-25T01:10:29.679Z,20.89
2017-04-25T01:10:49.680Z,20.93
2017-04-25T01:11:09.650Z,20.82
2017-04-25T01:11:29.071Z,20.91
2017-04-25T01:11:49.071Z,20.9
2017-04-25T01:12:09.058Z,20.94
2017-04-25T01:12:29.042Z,20.91
2017-04-25T01:12:48.443Z,20.99
2017-04-25T01:13:08.519Z,21.01
2017-04-25T01:13:28.521Z,20.93
2017-04-25T01:13:48.526Z,20.94
2017-04-25T01:14:08.495Z,20.91
2017-04-25T01:14:29.734Z,20.91
2017-04-25T01:14:49.987Z,20.99
2017-04-25T01:15:10.021Z,20.89
2017-04-25T01:15:29.414Z,20.94
2017-04-25T01:15:49.374Z,20.94
2017-04-25T01:16:09.355Z,20.93
2017-04-25T01:16:29.342Z,20.94
2017-04-25T01:16:49.324Z,20.83
2017-04-25T01:17:09.343Z,20.75
2017-04-25T01:17:29.318Z,20.79
2017-04-25T01:17:48.748Z,20.76
2017-04-25T01:18:08.702Z,20.76
2017-04-25T01:18:28.692Z,20.76
2017-04-25T01:18:48.646Z,20.66
2017-04-25T01:19:08.132Z,20.61
2017-04-25T01:19:28.130Z,20.65
2017-04-25T01:19:48.223Z,20.69
2017-04-25T01:20:08.242Z,20.62
2017-04-25T01:20:27.685Z,20.51
2017-04-25T01:20:47.656Z,20.51
2017-04-25T01:21:08.294Z,20.56
2017-04-25T01:21:27.195Z,20.4
2017-04-25T01:21:47.330Z,20.46
2017-04-25T01:22:07.340Z,20.49
2017-04-25T01:22:27.323Z,20.51
2017-04-25T01:22:47.361Z,20.43
2017-04-25T01:23:07.321Z,20.61
2017-04-25T01:23:27.588Z,20.62
2017-04-25T01:23:47.353Z,20.65
2017-04-25T01:24:07.356Z,20.62
2017-04-25T01:24:26.238Z,20.66
2017-04-25T01:24:46.239Z,20.65
2017-04-25T01:25:05.663Z,20.62
2017-04-25T01:25:25.624Z,20.71
2017-04-25T01:25:45.618Z,20.66
2017-04-25T01:26:05.605Z,20.79
2017-04-25T01:26:24.472Z,20.69
2017-04-25T01:26:44.433Z,20.8
2017-04-25T01:27:04.384Z,20.75
2017-04-25T01:27:23.819Z,20.79
2017-04-25T01:27:43.791Z,20.82
2017-04-25T01:28:03.809Z,20.83
2017-04-25T01:28:23.784Z,20.79
2017-04-25T01:28:43.809Z,20.72
2017-04-25T01:29:03.748Z,20.76
2017-04-25T01:29:23.733Z,20.74
2017-04-25T01:29:43.751Z,20.74
2017-04-25T01:30:03.774Z,20.79
2017-04-25T01:30:23.746Z,20.71
2017-04-25T01:30:43.703Z,20.62
2017-04-25T01:31:03.714Z,20.64
2017-04-25T01:31:23.689Z,20.66
2017-04-25T01:31:43.638Z,20.54
2017-04-25T01:32:03.620Z,20.51
2017-04-25T01:32:23.599Z,20.59
2017-04-25T01:32:43.593Z,20.62
2017-04-25T01:33:03.583Z,20.62
2017-04-25T01:33:23.567Z,20.65
2017-04-25T01:33:43.541Z,20.62
2017-04-25T01:34:02.965Z,20.69
2017-04-25T01:34:22.954Z,20.76
2017-04-25T01:34:42.894Z,20.76
2017-04-25T01:35:02.891Z,20.75
2017-04-25T01:35:22.297Z,20.79
2017-04-25T01:35:42.277Z,20.76
2017-04-25T01:36:01.712Z,20.79
2017-04-25T01:36:21.717Z,20.82
2017-04-25T01:36:41.717Z,20.8
2017-04-25T01:37:01.165Z,20.76
2017-04-25T01:37:21.187Z,20.83
2017-04-25T01:37:41.148Z,20.8
2017-04-25T01:38:00.586Z,20.82
2017-04-25T01:38:20.576Z,20.76
2017-04-25T01:38:40.569Z,20.71
2017-04-25T01:38:59.986Z,20.83
2017-04-25T01:39:19.431Z,20.8
2017-04-25T01:39:39.401Z,20.76
2017-04-25T01:39:59.384Z,20.71
2017-04-25T01:40:32.650Z,20.64
2017-04-25T01:40:52.766Z,20.62
2017-04-25T01:41:12.790Z,20.54
2017-04-25T01:41:32.758Z,20.64
2017-04-25T01:41:54.676Z,20.61
2017-04-25T01:42:15.959Z,20.5
2017-04-25T01:42:35.957Z,20.57
2017-04-25T01:42:55.960Z,20.64
2017-04-25T01:43:15.950Z,20.64
2017-04-25T01:43:35.939Z,20.59
2017-04-25T01:43:55.936Z,20.64
2017-04-25T01:44:15.343Z,20.66
2017-04-25T01:44:35.595Z,20.68
2017-04-25T01:44:55.604Z,20.62
2017-04-25T01:45:26.035Z,20.62
2017-04-25T01:45:45.985Z,20.68
2017-04-25T01:46:05.960Z,20.79
2017-04-25T01:46:25.377Z,20.8
2017-04-25T01:46:45.379Z,20.66
2017-04-25T01:47:05.361Z,20.64
2017-04-25T01:47:24.770Z,20.65
2017-04-25T01:47:44.770Z,20.62
2017-04-25T01:48:03.615Z,20.65
2017-04-25T01:48:23.618Z,20.69
2017-04-25T01:48:43.637Z,20.61
2017-04-25T01:49:03.623Z,20.62
2017-04-25T01:49:23.806Z,20.61
2017-04-25T01:49:43.861Z,20.51
2017-04-25T01:50:03.285Z,20.5
2017-04-25T01:50:22.692Z,20.62
2017-04-25T01:50:42.109Z,20.59
2017-04-25T01:51:02.114Z,20.69
2017-04-25T01:51:22.096Z,20.53
2017-04-25T01:51:41.534Z,20.61
2017-04-25T01:52:00.980Z,20.46
2017-04-25T01:52:20.959Z,20.61
2017-04-25T01:52:40.973Z,20.64
2017-04-25T01:53:00.984Z,20.69
2017-04-25T01:53:20.949Z,20.66
2017-04-25T01:53:40.896Z,20.65
2017-04-25T01:54:00.880Z,20.57
2017-04-25T01:54:20.311Z,20.71
2017-04-25T01:54:40.306Z,20.47
2017-04-25T01:55:00.262Z,20.57
2017-04-25T01:55:19.692Z,20.62
2017-04-25T01:55:39.190Z,20.69
2017-04-25T01:55:58.832Z,20.66
2017-04-25T01:56:18.780Z,20.69
2017-04-25T01:56:38.751Z,20.59
2017-04-25T01:56:58.730Z,20.62
2017-04-25T01:57:18.710Z,20.64
2017-04-25T01:57:38.151Z,20.57
2017-04-25T01:57:57.580Z,20.5
2017-04-25T01:58:17.635Z,20.62
2017-04-25T01:58:37.623Z,20.64
2017-04-25T01:58:57.649Z,20.68
2017-04-25T01:59:17.652Z,20.71
2017-04-25T01:59:37.622Z,20.74
2017-04-25T01:59:57.627Z,20.76
2017-04-25T02:00:17.611Z,20.69
2017-04-25T02:00:37.621Z,20.74
2017-04-25T02:00:57.612Z,20.76
2017-04-25T02:01:17.007Z,20.76
2017-04-25T02:01:37.012Z,20.75
2017-04-25T02:01:57.005Z,20.8
2017-04-25T02:02:16.425Z,20.76
2017-04-25T02:02:36.426Z,20.75
2017-04-25T02:02:56.471Z,20.8
2017-04-25T02:03:16.464Z,20.82
2017-04-25T02:03:36.473Z,20.79
2017-04-25T02:03:56.469Z,20.82
2017-04-25T02:04:16.474Z,20.79
2017-04-25T02:04:36.546Z,20.86
2017-04-25T02:04:56.501Z,20.84
2017-04-25T02:05:15.933Z,20.84
2017-04-25T02:05:35.927Z,20.93
2017-04-25T02:05:55.911Z,20.87
2017-04-25T02:06:15.362Z,20.91
2017-04-25T02:06:35.312Z,20.82
2017-04-25T02:06:55.312Z,20.91
2017-04-25T02:07:15.312Z,20.91
2017-04-25T02:07:35.296Z,20.93
2017-04-25T02:07:55.274Z,20.9
2017-04-25T02:08:15.249Z,20.94
2017-04-25T02:08:35.257Z,20.94
2017-04-25T02:08:55.236Z,20.94
2017-04-25T02:09:14.631Z,20.96
2017-04-25T02:09:34.628Z,21.04
2017-04-25T02:09:54.882Z,20.99
2017-04-25T02:10:14.862Z,20.99
2017-04-25T02:10:34.858Z,20.93
2017-04-25T02:10:54.868Z,20.96
2017-04-25T02:11:14.848Z,20.87
2017-04-25T02:11:34.852Z,20.94
2017-04-25T02:11:54.832Z,20.87
2017-04-25T02:12:14.816Z,20.91
2017-04-25T02:12:34.808Z,20.96
2017-04-25T02:12:54.790Z,20.96
2017-04-25T02:13:14.787Z,20.93
2017-04-25T02:13:34.790Z,20.98
2017-04-25T02:13:54.796Z,20.99
2017-04-25T02:14:14.778Z,20.91
2017-04-25T02:14:34.743Z,20.94
2017-04-25T02:14:54.917Z,20.86
2017-04-25T02:15:14.884Z,20.84
2017-04-25T02:15:34.857Z,20.84
2017-04-25T02:15:54.828Z,20.84
2017-04-25T02:16:13.702Z,20.82
2017-04-25T02:16:33.740Z,20.69
2017-04-25T02:16:53.147Z,20.71
2017-04-25T02:17:13.123Z,20.74
2017-04-25T02:17:33.124Z,20.8
2017-04-25T02:17:53.111Z,20.8
2017-04-25T02:18:13.129Z,20.71
2017-04-25T02:18:33.127Z,20.76
2017-04-25T02:18:53.115Z,20.76
2017-04-25T02:19:13.106Z,20.66
2017-04-25T02:19:32.529Z,20.61
2017-04-25T02:19:52.052Z,20.62
2017-04-25T02:20:11.441Z,20.64
2017-04-25T02:20:31.417Z,20.62
2017-04-25T02:20:51.408Z,20.64
2017-04-25T02:21:11.374Z,20.61
2017-04-25T02:21:31.330Z,20.56
2017-04-25T02:21:51.339Z,20.49
2017-04-25T02:22:11.317Z,20.54
2017-04-25T02:22:31.327Z,20.57
2017-04-25T02:22:51.333Z,20.65
2017-04-25T02:23:11.329Z,20.61
2017-04-25T02:23:31.310Z,20.72
2017-04-25T02:23:51.281Z,20.74
2017-04-25T02:24:10.678Z,20.72
2017-04-25T02:24:30.626Z,20.69
2017-04-25T02:24:50.596Z,20.76
2017-04-25T02:25:10.065Z,20.8
2017-04-25T02:25:30.065Z,20.8
2017-04-25T02:25:50.007Z,20.74
2017-04-25T02:26:09.466Z,20.71
2017-04-25T02:26:28.858Z,20.69
2017-04-25T02:26:48.853Z,20.57
2017-04-25T02:27:08.827Z,20.59
2017-04-25T02:27:28.801Z,20.61
2017-04-25T02:27:48.772Z,20.46
2017-04-25T02:28:08.743Z,20.43
2017-04-25T02:28:28.147Z,20.51
2017-04-25T02:28:48.129Z,20.53
2017-04-25T02:29:08.136Z,20.43
2017-04-25T02:29:27.567Z,20.37
2017-04-25T02:29:47.537Z,20.42
2017-04-25T02:30:07.529Z,20.4
2017-04-25T02:30:27.517Z,20.42
2017-04-25T02:30:47.475Z,20.5
2017-04-25T02:31:07.465Z,20.38
2017-04-25T02:31:26.900Z,20.37
2017-04-25T02:31:46.845Z,20.35
2017-04-25T02:32:06.259Z,20.34
2017-04-25T02:32:25.685Z,20.4
2017-04-25T02:32:45.664Z,20.42
2017-04-25T02:33:05.644Z,20.38
2017-04-25T02:33:25.617Z,20.47
2017-04-25T02:33:45.631Z,20.43
2017-04-25T02:34:05.623Z,20.47
2017-04-25T02:34:25.025Z,20.47
2017-04-25T02:34:45.001Z,20.46
2017-04-25T02:35:05.368Z,20.56
2017-04-25T02:35:24.827Z,20.54
2017-04-25T02:35:44.825Z,20.62
2017-04-25T02:36:04.820Z,20.64
2017-04-25T02:36:24.793Z,20.61
2017-04-25T02:36:44.770Z,20.69
2017-04-25T02:37:04.187Z,20.57
2017-04-25T02:37:24.158Z,20.51
2017-04-25T02:37:44.151Z,20.64
2017-04-25T02:38:04.153Z,20.64
2017-04-25T02:38:24.149Z,20.62
2017-04-25T02:38:43.564Z,20.66
2017-04-25T02:39:03.000Z,20.66
2017-04-25T02:39:22.976Z,20.62
2017-04-25T02:39:43.015Z,20.61
2017-04-25T02:40:03.250Z,20.62
2017-04-25T02:40:22.859Z,20.5
2017-04-25T02:40:42.302Z,20.43
2017-04-25T02:41:02.300Z,20.51
2017-04-25T02:41:22.311Z,20.51
2017-04-25T02:41:42.297Z,20.53
2017-04-25T02:42:02.286Z,20.56
2017-04-25T02:42:22.300Z,20.5
2017-04-25T02:42:42.285Z,20.56
2017-04-25T02:43:02.246Z,20.56
2017-04-25T02:43:22.236Z,20.51
2017-04-25T02:43:42.216Z,20.59
2017-04-25T02:44:02.212Z,20.65
2017-04-25T02:44:21.641Z,20.64
2017-04-25T02:44:41.663Z,20.64
2017-04-25T02:45:01.667Z,20.61
2017-04-25T02:45:21.692Z,20.68
2017-04-25T02:45:41.663Z,20.68
2017-04-25T02:46:01.620Z,20.61
2017-04-25T02:46:21.564Z,20.61
2017-04-25T02:46:41.571Z,20.51
2017-04-25T02:47:01.546Z,20.42
2017-04-25T02:47:20.432Z,20.47
2017-04-25T02:47:40.420Z,20.49
2017-04-25T02:48:00.453Z,20.51
2017-04-25T02:48:20.474Z,20.53
2017-04-25T02:48:40.522Z,20.34
2017-04-25T02:49:00.493Z,20.31
2017-04-25T02:49:20.461Z,20.38
2017-04-25T02:49:40.469Z,20.47
2017-04-25T02:49:59.904Z,20.43
2017-04-25T02:50:19.857Z,20.49
2017-04-25T02:50:39.272Z,20.49
2017-04-25T02:50:59.244Z,20.54
2017-04-25T02:51:18.665Z,20.49
2017-04-25T02:51:38.631Z,20.5
2017-04-25T02:51:58.645Z,20.43
2017-04-25T02:52:18.626Z,20.49
2017-04-25T02:52:38.593Z,20.49
2017-04-25T02:52:58.576Z,20.5
2017-04-25T02:53:18.564Z,20.53
2017-04-25T02:53:38.532Z,20.46
2017-04-25T02:53:58.482Z,20.54
2017-04-25T02:54:18.505Z,20.43
2017-04-25T02:54:38.503Z,20.56
2017-04-25T02:54:58.491Z,20.51
2017-04-25T02:55:17.894Z,20.61
2017-04-25T02:55:37.329Z,20.61
2017-04-25T02:55:57.303Z,20.65
2017-04-25T02:56:17.288Z,20.62
2017-04-25T02:56:37.274Z,20.64
2017-04-25T02:56:57.251Z,20.66
2017-04-25T02:57:16.662Z,20.59
2017-04-25T02:57:36.648Z,20.61
2017-04-25T02:57:56.682Z,20.65
2017-04-25T02:58:16.646Z,20.66
2017-04-25T02:58:36.641Z,20.54
2017-04-25T02:58:56.656Z,20.59
2017-04-25T02:59:16.637Z,20.54
2017-04-25T02:59:36.598Z,20.61
2017-04-25T02:59:56.589Z,20.64
2017-04-25T03:00:16.606Z,20.66
2017-04-25T03:00:36.036Z,20.47
2017-04-25T03:00:56.032Z,20.43
2017-04-25T03:01:16.009Z,20.47
2017-04-25T03:01:35.958Z,20.5
2017-04-25T03:01:55.924Z,20.5
2017-04-25T03:02:15.324Z,20.5
2017-04-25T03:02:35.300Z,20.4
2017-04-25T03:02:55.353Z,20.42
2017-04-25T03:03:15.351Z,20.42
2017-04-25T03:03:35.312Z,20.46
2017-04-25T03:03:55.295Z,20.53
2017-04-25T03:04:15.271Z,20.54
2017-04-25T03:04:35.263Z,20.5
2017-04-25T03:04:55.257Z,20.61
2017-04-25T03:05:15.240Z,20.65
2017-04-25T03:05:35.197Z,20.61
2017-04-25T03:05:55.170Z,20.64
2017-04-25T03:06:15.135Z,20.65
2017-04-25T03:06:35.152Z,20.72
2017-04-25T03:06:54.574Z,20.65
2017-04-25T03:07:14.536Z,20.66
2017-04-25T03:07:34.503Z,20.66
2017-04-25T03:07:54.492Z,20.57
2017-04-25T03:08:14.461Z,20.71
2017-04-25T03:08:34.384Z,20.68
2017-04-25T03:08:54.344Z,20.64
2017-04-25T03:09:13.743Z,20.66
2017-04-25T03:09:33.720Z,20.74
2017-04-25T03:09:53.686Z,20.84
2017-04-25T03:10:13.707Z,20.79
2017-04-25T03:10:33.678Z,20.75
2017-04-25T03:10:53.668Z,20.64
2017-04-25T03:11:13.100Z,20.61
2017-04-25T03:11:33.082Z,20.71
2017-04-25T03:11:53.097Z,20.72
2017-04-25T03:12:12.585Z,20.72
2017-04-25T03:12:31.992Z,20.72
2017-04-25T03:12:51.423Z,20.76
2017-04-25T03:13:10.830Z,20.72
2017-04-25T03:13:30.815Z,20.68
2017-04-25T03:13:50.809Z,20.79
2017-04-25T03:14:10.239Z,20.74
2017-04-25T03:14:30.222Z,20.69
2017-04-25T03:14:50.432Z,20.72
2017-04-25T03:15:10.421Z,20.75
2017-04-25T03:15:29.854Z,20.79
2017-04-25T03:15:49.813Z,20.74
2017-04-25T03:16:09.806Z,20.76
2017-04-25T03:16:29.236Z,20.74
2017-04-25T03:16:48.115Z,20.8
2017-04-25T03:17:08.085Z,20.66
2017-04-25T03:17:27.511Z,20.75
2017-04-25T03:17:46.920Z,20.61
2017-04-25T03:18:06.900Z,20.59
2017-04-25T03:18:26.334Z,20.61
2017-04-25T03:18:45.770Z,20.61
2017-04-25T03:19:04.633Z,20.53
2017-04-25T03:19:24.633Z,20.62
2017-04-25T03:19:44.638Z,20.68
2017-04-25T03:20:04.617Z,20.62
2017-04-25T03:20:24.018Z,20.59
2017-04-25T03:20:43.421Z,20.62
2017-04-25T03:21:03.396Z,20.5
2017-04-25T03:21:23.378Z,20.51
2017-04-25T03:21:43.353Z,20.62
2017-04-25T03:22:03.349Z,20.65
2017-04-25T03:22:22.769Z,20.65
2017-04-25T03:22:42.768Z,20.61
2017-04-25T03:23:02.752Z,20.49
2017-04-25T03:23:22.720Z,20.49
2017-04-25T03:23:42.697Z,20.46
2017-04-25T03:24:02.649Z,20.49
2017-04-25T03:24:22.667Z,20.47
2017-04-25T03:24:42.642Z,20.46
2017-04-25T03:25:02.583Z,20.5
2017-04-25T03:25:22.586Z,20.54
2017-04-25T03:25:41.977Z,20.54
2017-04-25T03:26:01.369Z,20.53
2017-04-25T03:26:21.373Z,20.62
2017-04-25T03:26:41.342Z,20.56
2017-04-25T03:27:01.323Z,20.57
2017-04-25T03:27:21.320Z,20.46
2017-04-25T03:27:41.312Z,20.51
2017-04-25T03:28:01.293Z,20.42
2017-04-25T03:28:21.292Z,20.49
2017-04-25T03:28:41.456Z,20.42
2017-04-25T03:29:01.442Z,20.4
2017-04-25T03:29:21.390Z,20.43
2017-04-25T03:29:41.339Z,20.4
2017-04-25T03:30:01.323Z,20.42
2017-04-25T03:30:21.320Z,20.37
2017-04-25T03:30:41.310Z,20.37
2017-04-25T03:31:01.295Z,20.33
2017-04-25T03:31:21.268Z,20.34
2017-04-25T03:31:40.687Z,20.37
2017-04-25T03:32:00.683Z,20.28
2017-04-25T03:32:20.105Z,20.31
2017-04-25T03:32:39.518Z,20.24
2017-04-25T03:32:59.512Z,20.28
2017-04-25T03:33:18.922Z,20.34
2017-04-25T03:33:38.904Z,20.33
2017-04-25T03:33:58.886Z,20.31
2017-04-25T03:34:18.297Z,20.37
2017-04-25T03:34:38.270Z,20.3
2017-04-25T03:34:58.226Z,20.34
2017-04-25T03:35:18.185Z,20.31
2017-04-25T03:35:38.149Z,20.27
2017-04-25T03:35:57.573Z,20.3
2017-04-25T03:36:16.989Z,20.19
2017-04-25T03:36:36.967Z,20.23
2017-04-25T03:36:56.416Z,20.26
2017-04-25T03:37:16.378Z,20.13
2017-04-25T03:37:36.390Z,20.09
2017-04-25T03:37:56.353Z,20.26
2017-04-25T03:38:14.649Z,20.16
2017-04-25T03:38:34.614Z,20.05
2017-04-25T03:38:54.601Z,20.15
2017-04-25T03:39:14.044Z,20.1
2017-04-25T03:39:34.029Z,20.08
2017-04-25T03:39:53.994Z,20.06
2017-04-25T03:40:13.964Z,20.13
2017-04-25T03:40:33.946Z,20.1
2017-04-25T03:40:53.921Z,20.08
2017-04-25T03:41:13.913Z,20.15
2017-04-25T03:41:33.918Z,20.12
2017-04-25T03:41:53.342Z,20.15
2017-04-25T03:42:13.318Z,20.1
2017-04-25T03:42:33.317Z,20.2
2017-04-25T03:42:53.304Z,20.1
2017-04-25T03:43:13.296Z,20.03
2017-04-25T03:43:33.312Z,20.06
2017-04-25T03:43:53.299Z,20.08
2017-04-25T03:44:12.720Z,20.08
2017-04-25T03:44:32.178Z,20.09
2017-04-25T03:44:52.174Z,20.08
2017-04-25T03:45:12.160Z,20.06
2017-04-25T03:45:32.133Z,20.08
2017-04-25T03:45:52.101Z,20.08
2017-04-25T03:46:12.100Z,20.1
2017-04-25T03:46:32.106Z,20.08
2017-04-25T03:46:51.514Z,20.03
2017-04-25T03:47:11.498Z,20.08
2017-04-25T03:47:30.933Z,20.09
2017-04-25T03:47:50.918Z,20.05
2017-04-25T03:48:10.933Z,20.05
2017-04-25T03:48:30.943Z,20.05
2017-04-25T03:48:50.358Z,20.09
2017-04-25T03:49:10.336Z,20.12
2017-04-25T03:49:30.496Z,20.16
2017-04-25T03:49:50.489Z,20.16
2017-04-25T03:50:10.515Z,20.1
2017-04-25T03:50:30.494Z,20.1
2017-04-25T03:50:49.925Z,20.1
2017-04-25T03:51:09.892Z,20.12
2017-04-25T03:51:29.299Z,20.12
2017-04-25T03:51:49.292Z,20.08
2017-04-25T03:52:09.304Z,20.12
2017-04-25T03:52:29.283Z,20.08
2017-04-25T03:52:49.272Z,20.09
2017-04-25T03:53:09.275Z,20.05
2017-04-25T03:53:28.689Z,20.09
2017-04-25T03:53:48.692Z,20.1
2017-04-25T03:54:08.677Z,20.06
2017-04-25T03:54:28.624Z,20.13
2017-04-25T03:54:48.581Z,20.09
2017-04-25T03:55:08.609Z,20.05
2017-04-25T03:55:28.570Z,20.09
2017-04-25T03:55:48.518Z,20.13
2017-04-25T03:56:08.513Z,20.03
2017-04-25T03:56:27.893Z,20.06
2017-04-25T03:56:47.903Z,20.08
2017-04-25T03:57:07.884Z,20.05
2017-04-25T03:57:27.841Z,20.13
2017-04-25T03:57:47.841Z,20.1
2017-04-25T03:58:07.850Z,20.03
2017-04-25T03:58:26.700Z,20.06
2017-04-25T03:58:46.654Z,20.1
2017-04-25T03:59:06.643Z,20.13
2017-04-25T03:59:26.669Z,20.03
2017-04-25T03:59:46.694Z,20.09
2017-04-25T04:00:06.704Z,20.1
2017-04-25T04:00:26.095Z,20.03
2017-04-25T04:00:46.045Z,20.06
2017-04-25T04:01:06.021Z,20.03
2017-04-25T04:01:25.451Z,20.06
2017-04-25T04:01:44.888Z,20.08
2017-04-25T04:02:04.822Z,20.16
2017-04-25T04:02:24.234Z,20.16
2017-04-25T04:02:44.227Z,20.13
2017-04-25T04:03:04.218Z,20.19
2017-04-25T04:03:23.622Z,20.12
2017-04-25T04:03:43.558Z,20.18
2017-04-25T04:04:03.592Z,20.16
2017-04-25T04:04:23.560Z,20.16
2017-04-25T04:04:43.669Z,20.2
2017-04-25T04:05:03.659Z,20.26
2017-04-25T04:05:23.625Z,20.24
2017-04-25T04:05:43.616Z,20.1
2017-04-25T04:06:03.612Z,20.19
2017-04-25T04:06:23.598Z,20.16
2017-04-25T04:06:43.587Z,20.23
2017-04-25T04:07:03.605Z,20.18
2017-04-25T04:07:22.996Z,20.27
2017-04-25T04:07:42.983Z,20.18
2017-04-25T04:08:02.976Z,20.3
2017-04-25T04:08:22.381Z,20.3
2017-04-25T04:08:42.326Z,20.24
2017-04-25T04:09:01.722Z,20.27
2017-04-25T04:09:21.139Z,20.28
2017-04-25T04:09:41.080Z,20.26
2017-04-25T04:10:01.056Z,20.31
2017-04-25T04:10:21.023Z,20.26
2017-04-25T04:10:40.991Z,20.31
2017-04-25T04:11:00.947Z,20.31
2017-04-25T04:11:20.918Z,20.27
2017-04-25T04:11:40.340Z,20.15
2017-04-25T04:11:59.742Z,20.27
2017-04-25T04:12:19.684Z,20.12
2017-04-25T04:12:39.666Z,20.18
2017-04-25T04:12:59.668Z,20.19
2017-04-25T04:13:19.668Z,20.19
2017-04-25T04:13:39.662Z,20.1
2017-04-25T04:13:59.644Z,20.12
2017-04-25T04:14:19.604Z,20.09
2017-04-25T04:14:39.015Z,20.18
2017-04-25T04:14:59.007Z,20.24
2017-04-25T04:15:18.466Z,20.28
2017-04-25T04:15:38.442Z,20.24
2017-04-25T04:15:57.893Z,20.28
2017-04-25T04:16:17.893Z,20.19
2017-04-25T04:16:37.859Z,20.2
2017-04-25T04:16:57.827Z,20.16
2017-04-25T04:17:17.238Z,20.27